createdAt,value
2018-12-05T00:00:02.053Z,99.90
2018-12-05T00:02:40.064Z,99.90
2018-12-05T00:05:10.531Z,99.90
2018-12-05T00:07:40.907Z,99.90
2018-12-05T00:10:11.234Z,99.90
2018-12-05T00:12:41.005Z,99.90
2018-12-05T00:15:11.647Z,99.90
2018-12-05T00:17:42.146Z,99.90
2018-12-05T00:20:12.370Z,99.90
2018-12-05T00:22:42.333Z,99.90
2018-12-05T00:25:12.965Z,99.90
2018-12-05T00:27:43.086Z,99.90
2018-12-05T00:30:13.240Z,99.90
2018-12-05T00:32:43.147Z,99.90
2018-12-05T00:35:13.373Z,99.90
2018-12-05T00:37:43.566Z,99.90
2018-12-05T00:40:13.840Z,99.90
2018-12-05T00:42:43.681Z,99.90
2018-12-05T00:45:13.585Z,99.90
2018-12-05T00:47:43.496Z,99.90
2018-12-05T00:50:13.708Z,99.90
2018-12-05T00:52:44.072Z,99.90
2018-12-05T00:55:14.047Z,99.90
2018-12-05T00:57:44.165Z,99.90
2018-12-05T01:00:14.283Z,99.90
2018-12-05T01:02:44.708Z,99.90
2018-12-05T01:05:14.873Z,99.90
2018-12-05T01:07:45.252Z,99.90
2018-12-05T01:10:16.594Z,99.90
2018-12-05T01:12:47.332Z,99.90
2018-12-05T01:15:17.546Z,99.90
2018-12-05T01:17:47.940Z,99.90
2018-12-05T01:20:18.054Z,99.90
2018-12-05T01:22:48.504Z,99.90
2018-12-05T01:25:19.324Z,99.90
2018-12-05T01:27:49.907Z,99.90
2018-12-05T01:30:20.215Z,99.90
2018-12-05T01:32:50.700Z,99.90
2018-12-05T01:35:21.256Z,99.90
2018-12-05T01:37:51.692Z,99.90
2018-12-05T01:40:21.976Z,99.90
2018-12-05T01:42:52.403Z,99.90
2018-12-05T01:45:22.500Z,99.90
2018-12-05T01:47:53.093Z,99.90
2018-12-05T01:50:23.288Z,99.90
2018-12-05T01:52:53.625Z,99.90
2018-12-05T01:55:24.017Z,99.90
2018-12-05T01:57:54.319Z,99.90
2018-12-05T02:00:24.928Z,99.90
2018-12-05T02:02:54.838Z,99.90
2018-12-05T02:05:25.304Z,99.90
2018-12-05T02:07:56.005Z,99.90
2018-12-05T02:10:26.743Z,99.90
2018-12-05T02:12:56.899Z,99.90
2018-12-05T02:15:27.087Z,99.90
2018-12-05T02:17:56.926Z,99.90
2018-12-05T02:20:27.167Z,99.90
2018-12-05T02:22:57.230Z,99.90
2018-12-05T02:25:27.259Z,99.90
2018-12-05T02:27:58.302Z,99.90
2018-12-05T02:30:28.783Z,99.90
2018-12-05T02:32:58.917Z,99.90
2018-12-05T02:35:29.157Z,99.90
2018-12-05T02:37:59.414Z,99.90
2018-12-05T02:40:29.632Z,99.90
2018-12-05T02:42:59.682Z,99.90
2018-12-05T02:45:30.089Z,99.90
2018-12-05T02:48:00.734Z,99.90
2018-12-05T02:50:31.137Z,99.90
2018-12-05T02:53:01.695Z,99.90
2018-12-05T02:55:32.197Z,99.90
2018-12-05T02:58:02.320Z,99.90
2018-12-05T03:00:32.305Z,99.90
2018-12-05T03:03:03.022Z,99.90
2018-12-05T03:05:33.433Z,99.90
2018-12-05T03:08:03.616Z,99.90
2018-12-05T03:10:33.774Z,99.90
2018-12-05T03:13:04.400Z,99.90
2018-12-05T03:15:34.294Z,99.90
2018-12-05T03:18:05.859Z,99.90
2018-12-05T03:20:36.090Z,99.90
2018-12-05T03:23:06.275Z,99.90
2018-12-05T03:25:36.605Z,99.90
2018-12-05T03:28:07.574Z,99.90
2018-12-05T03:30:38.472Z,99.90
2018-12-05T03:33:08.984Z,99.90
2018-12-05T03:35:39.761Z,99.90
2018-12-05T03:38:09.584Z,99.90
2018-12-05T03:40:40.320Z,99.90
2018-12-05T03:43:10.564Z,99.90
2018-12-05T03:45:40.630Z,99.90
2018-12-05T03:48:10.827Z,99.90
2018-12-05T03:50:41.039Z,99.90
2018-12-05T03:53:10.924Z,99.90
2018-12-05T03:55:40.864Z,99.90
2018-12-05T03:58:11.027Z,99.90
2018-12-05T04:00:41.523Z,99.90
2018-12-05T04:03:12.075Z,99.90
2018-12-05T04:05:41.994Z,99.90
2018-12-05T04:08:12.182Z,99.90
2018-12-05T04:10:42.502Z,99.90
2018-12-05T04:13:13.278Z,99.90
2018-12-05T04:15:44.041Z,99.90
2018-12-05T04:18:14.710Z,99.90
2018-12-05T04:20:44.640Z,99.90
2018-12-05T04:23:14.421Z,99.90
2018-12-05T04:25:45.016Z,99.90
2018-12-05T04:28:15.302Z,99.90
2018-12-05T04:30:45.133Z,99.90
2018-12-05T04:33:17.910Z,99.90
2018-12-05T04:35:47.752Z,99.90
2018-12-05T04:38:18.138Z,99.90
2018-12-05T04:40:48.418Z,99.90
2018-12-05T04:43:18.496Z,99.90
2018-12-05T04:45:48.626Z,99.90
2018-12-05T04:48:18.630Z,99.90
2018-12-05T04:50:48.477Z,99.90
2018-12-05T04:53:19.158Z,99.90
2018-12-05T04:55:49.355Z,99.90
2018-12-05T04:58:19.558Z,99.90
2018-12-05T05:00:50.025Z,99.90
2018-12-05T05:03:20.709Z,99.90
2018-12-05T05:05:50.811Z,99.90
2018-12-05T05:08:24.446Z,99.90
2018-12-05T05:10:55.151Z,99.90
2018-12-05T05:13:26.066Z,99.90
2018-12-05T05:15:55.864Z,99.90
2018-12-05T05:18:26.189Z,99.90
2018-12-05T05:20:56.695Z,99.90
2018-12-05T05:23:27.121Z,99.90
2018-12-05T05:25:57.475Z,99.90
2018-12-05T05:28:28.330Z,99.90
2018-12-05T05:30:58.499Z,99.90
2018-12-05T05:33:28.577Z,99.90
2018-12-05T05:35:58.715Z,99.90
2018-12-05T05:38:29.198Z,99.90
2018-12-05T05:40:59.571Z,99.90
2018-12-05T05:43:29.874Z,99.90
2018-12-05T05:45:59.724Z,99.90
2018-12-05T05:48:30.326Z,99.90
2018-12-05T05:51:00.448Z,99.90
2018-12-05T05:53:30.578Z,99.90
2018-12-05T05:56:00.650Z,99.90
2018-12-05T05:58:30.948Z,99.90
2018-12-05T06:01:01.408Z,99.90
2018-12-05T06:03:31.411Z,99.90
2018-12-05T06:06:01.884Z,99.90
2018-12-05T06:08:32.757Z,99.90
2018-12-05T06:11:02.896Z,99.90
2018-12-05T06:13:33.765Z,99.90
2018-12-05T06:16:04.592Z,99.90
2018-12-05T06:18:34.843Z,99.90
2018-12-05T06:21:04.873Z,99.90
2018-12-05T06:23:36.116Z,99.90
2018-12-05T06:26:06.097Z,99.90
2018-12-05T06:28:36.191Z,99.90
2018-12-05T06:31:06.496Z,99.90
2018-12-05T06:33:37.415Z,99.90
2018-12-05T06:36:12.478Z,99.90
2018-12-05T06:38:43.023Z,99.90
2018-12-05T06:41:13.167Z,99.90
2018-12-05T06:43:43.216Z,99.90
2018-12-05T06:46:13.816Z,99.90
2018-12-05T06:48:44.194Z,99.90
2018-12-05T06:51:14.696Z,99.90
2018-12-05T06:53:48.254Z,99.90
2018-12-05T06:56:18.537Z,99.90
2018-12-05T06:58:49.190Z,99.90
2018-12-05T07:01:19.304Z,99.90
2018-12-05T07:03:50.825Z,99.90
2018-12-05T07:06:20.990Z,99.90
2018-12-05T07:08:50.879Z,99.90
2018-12-05T07:11:21.083Z,99.90
2018-12-05T07:13:51.304Z,99.90
2018-12-05T07:16:21.654Z,99.90
2018-12-05T07:18:52.467Z,99.90
2018-12-05T07:21:23.066Z,99.90
2018-12-05T07:23:53.491Z,99.90
2018-12-05T07:26:24.108Z,99.90
2018-12-05T07:28:54.567Z,99.90
2018-12-05T07:31:24.683Z,99.90
2018-12-05T07:33:55.608Z,99.90
2018-12-05T07:36:25.586Z,99.90
2018-12-05T07:38:56.117Z,99.90
2018-12-05T07:41:26.210Z,99.90
2018-12-05T07:43:56.395Z,99.90
2018-12-05T07:46:26.793Z,99.90
2018-12-05T07:48:57.203Z,99.90
2018-12-05T07:51:28.396Z,99.90
2018-12-05T07:53:58.528Z,99.90
2018-12-05T07:56:28.689Z,99.90
2018-12-05T07:59:00.114Z,99.90
2018-12-05T08:01:30.611Z,99.90
2018-12-05T08:04:01.349Z,99.90
2018-12-05T08:06:31.169Z,99.90
2018-12-05T08:09:01.385Z,99.90
2018-12-05T08:11:32.546Z,99.90
2018-12-05T08:14:02.704Z,99.90
2018-12-05T08:16:33.406Z,99.90
2018-12-05T08:19:03.454Z,99.90
2018-12-05T08:21:33.774Z,99.90
2018-12-05T08:24:04.335Z,99.90
2018-12-05T08:26:34.295Z,99.90
2018-12-05T08:29:05.195Z,99.90
2018-12-05T08:31:35.709Z,99.90
2018-12-05T08:34:06.138Z,99.90
2018-12-05T08:36:36.676Z,99.90
2018-12-05T08:39:09.039Z,99.90
2018-12-05T08:41:39.462Z,99.90
2018-12-05T08:44:10.451Z,99.90
2018-12-05T08:46:40.813Z,99.90
2018-12-05T08:49:10.804Z,99.90
2018-12-05T08:51:41.801Z,99.90
2018-12-05T08:54:12.942Z,99.90
2018-12-05T08:56:43.228Z,99.90
2018-12-05T08:59:13.450Z,99.90
2018-12-05T09:01:43.696Z,99.90
2018-12-05T09:04:13.964Z,99.90
2018-12-05T09:06:44.496Z,99.90
2018-12-05T09:09:16.301Z,99.90
2018-12-05T09:11:52.614Z,99.90
2018-12-05T09:14:28.636Z,99.90
2018-12-05T09:16:55.517Z,99.90
2018-12-05T09:19:26.026Z,99.90
2018-12-05T09:21:56.628Z,99.90
2018-12-05T09:24:26.481Z,99.90
2018-12-05T09:26:57.104Z,99.90
2018-12-05T09:29:27.647Z,99.90
2018-12-05T09:31:58.046Z,99.90
2018-12-05T09:34:28.744Z,99.90
2018-12-05T09:36:58.794Z,99.90
2018-12-05T09:39:29.402Z,99.90
2018-12-05T09:41:59.474Z,99.90
2018-12-05T09:44:30.156Z,99.90
2018-12-05T09:47:00.552Z,99.90
2018-12-05T09:49:30.830Z,99.90
2018-12-05T09:52:01.731Z,99.90
2018-12-05T09:54:31.639Z,99.90
2018-12-05T09:57:01.836Z,99.90
2018-12-05T09:59:32.142Z,99.90
2018-12-05T10:02:03.229Z,99.90
2018-12-05T10:04:33.331Z,99.90
2018-12-05T10:07:03.634Z,99.90
2018-12-05T10:09:33.865Z,99.90
2018-12-05T10:12:04.100Z,99.90
2018-12-05T10:14:34.171Z,99.90
2018-12-05T10:17:10.997Z,99.90
2018-12-05T10:19:41.205Z,99.90
2018-12-05T10:22:11.113Z,99.90
2018-12-05T10:24:41.234Z,99.90
2018-12-05T10:27:11.611Z,99.90
2018-12-05T10:29:42.557Z,99.90
2018-12-05T10:32:14.650Z,99.90
2018-12-05T10:34:45.241Z,99.90
2018-12-05T10:37:15.886Z,99.90
2018-12-05T10:39:46.478Z,99.90
2018-12-05T10:42:17.594Z,99.90
2018-12-05T10:44:47.815Z,99.90
2018-12-05T10:47:17.928Z,99.90
2018-12-05T10:49:48.052Z,99.90
2018-12-05T10:52:18.972Z,99.90
2018-12-05T10:54:49.154Z,99.90
2018-12-05T10:57:19.361Z,99.90
2018-12-05T10:59:49.497Z,99.90
2018-12-05T11:02:25.106Z,99.90
2018-12-05T11:05:00.442Z,99.90
2018-12-05T11:07:35.832Z,99.90
2018-12-05T11:10:11.267Z,99.90
2018-12-05T11:12:46.288Z,99.40
2018-12-05T11:15:22.346Z,99.90
2018-12-05T11:17:57.972Z,99.50
2018-12-05T11:20:33.051Z,99.30
2018-12-05T11:23:08.553Z,98.50
2018-12-05T11:25:39.107Z,98.70
2018-12-05T11:28:09.713Z,97.90
2018-12-05T11:30:39.551Z,98.20
2018-12-05T11:33:09.872Z,98.80
2018-12-05T11:35:40.511Z,97.90
2018-12-05T11:38:10.564Z,97.20
2018-12-05T11:40:40.974Z,97.40
2018-12-05T11:43:13.152Z,97.60
2018-12-05T11:45:43.330Z,99.60
2018-12-05T11:48:13.659Z,97.70
2018-12-05T11:50:43.904Z,96.70
2018-12-05T11:53:14.798Z,98.50
2018-12-05T11:55:45.183Z,97.10
2018-12-05T11:58:15.487Z,99.50
2018-12-05T12:00:45.992Z,97.80
2018-12-05T12:03:16.549Z,97.10
2018-12-05T12:05:48.802Z,99.50
2018-12-05T12:08:19.624Z,99.90
2018-12-05T12:10:50.390Z,99.90
2018-12-05T12:13:21.487Z,99.90
2018-12-05T12:15:51.561Z,99.90
2018-12-05T12:18:21.418Z,99.90
2018-12-05T12:20:51.452Z,99.90
2018-12-05T12:23:21.886Z,99.90
2018-12-05T12:25:51.977Z,99.90
2018-12-05T12:28:22.362Z,99.90
2018-12-05T12:30:52.956Z,99.90
2018-12-05T12:33:23.216Z,99.90
2018-12-05T12:35:53.603Z,99.90
2018-12-05T12:38:24.165Z,99.90
2018-12-05T12:40:54.411Z,99.90
2018-12-05T12:43:24.961Z,99.90
2018-12-05T12:45:55.115Z,99.90
2018-12-05T12:48:25.833Z,99.90
2018-12-05T12:50:56.818Z,99.90
2018-12-05T12:53:26.908Z,99.90
2018-12-05T12:55:56.886Z,99.90
2018-12-05T12:58:27.812Z,99.90
2018-12-05T13:00:58.184Z,99.90
2018-12-05T13:03:28.214Z,99.90
2018-12-05T13:05:58.430Z,99.90
2018-12-05T13:08:28.363Z,99.90
2018-12-05T13:10:58.932Z,99.90
2018-12-05T13:13:28.865Z,99.90
2018-12-05T13:15:59.311Z,99.90
2018-12-05T13:18:29.319Z,99.90
2018-12-05T13:20:59.644Z,99.90
2018-12-05T13:23:30.211Z,99.90
2018-12-05T13:26:01.102Z,99.90
2018-12-05T13:28:31.091Z,99.90
2018-12-05T13:31:01.245Z,99.90
2018-12-05T13:33:31.174Z,99.90
2018-12-05T13:36:01.578Z,99.90
2018-12-05T13:38:32.259Z,99.90
2018-12-05T13:41:02.286Z,99.90
2018-12-05T13:43:32.593Z,99.90
2018-12-05T13:46:02.864Z,99.90
2018-12-05T13:48:33.091Z,99.90
2018-12-05T13:51:03.489Z,99.90
2018-12-05T13:53:34.577Z,99.90
2018-12-05T13:56:05.088Z,99.90
2018-12-05T13:58:35.451Z,99.90
2018-12-05T14:01:06.087Z,99.90
2018-12-05T14:03:35.971Z,99.90
2018-12-05T14:06:06.561Z,99.90
2018-12-05T14:08:36.677Z,99.90
2018-12-05T14:11:06.848Z,99.90
2018-12-05T14:13:37.935Z,99.90
2018-12-05T14:16:08.503Z,99.90
2018-12-05T14:18:39.125Z,99.90
2018-12-05T14:21:09.241Z,99.90
2018-12-05T14:23:40.153Z,99.90
2018-12-05T14:26:10.461Z,99.90
2018-12-05T14:28:41.321Z,99.90
2018-12-05T14:31:11.796Z,99.90
2018-12-05T14:33:41.913Z,99.90
2018-12-05T14:36:12.629Z,99.90
2018-12-05T14:38:43.033Z,99.90
2018-12-05T14:41:13.686Z,99.90
2018-12-05T14:43:43.825Z,99.90
2018-12-05T14:46:14.116Z,99.90
2018-12-05T14:48:44.537Z,99.90
2018-12-05T14:51:15.090Z,99.90
2018-12-05T14:53:45.999Z,99.90
2018-12-05T14:56:16.409Z,99.90
2018-12-05T14:58:46.486Z,99.90
2018-12-05T15:01:16.809Z,99.90
2018-12-05T15:03:47.177Z,99.90
2018-12-05T15:06:17.199Z,99.90
2018-12-05T15:08:48.099Z,99.90
2018-12-05T15:11:18.403Z,99.90
2018-12-05T15:13:48.903Z,99.90
2018-12-05T15:16:19.175Z,99.90
2018-12-05T15:18:49.439Z,99.90
2018-12-05T15:21:19.658Z,99.90
2018-12-05T15:23:51.617Z,99.90
2018-12-05T15:26:22.513Z,99.90
2018-12-05T15:28:52.577Z,99.90
2018-12-05T15:31:23.437Z,99.90
2018-12-05T15:33:53.787Z,99.90
2018-12-05T15:36:23.956Z,99.90
2018-12-05T15:38:54.841Z,99.90
2018-12-05T15:41:25.044Z,99.90
2018-12-05T15:43:55.208Z,99.90
2018-12-05T15:46:25.704Z,99.90
2018-12-05T15:48:56.044Z,99.90
2018-12-05T15:51:27.264Z,99.90
2018-12-05T15:53:57.704Z,99.90
2018-12-05T15:56:27.792Z,99.90
2018-12-05T15:58:58.301Z,99.90
2018-12-05T16:01:34.737Z,99.90
2018-12-05T16:04:05.937Z,99.90
2018-12-05T16:06:36.664Z,99.90
2018-12-05T16:09:08.464Z,99.90
2018-12-05T16:11:44.424Z,99.90
2018-12-05T16:14:15.547Z,99.90
2018-12-05T16:16:46.225Z,99.90
2018-12-05T16:19:16.739Z,99.90
2018-12-05T16:21:46.826Z,99.90
2018-12-05T16:24:17.559Z,99.90
2018-12-05T16:26:48.225Z,99.90
2018-12-05T16:29:18.756Z,99.90
2018-12-05T16:31:49.102Z,99.90
2018-12-05T16:34:19.898Z,99.90
2018-12-05T16:36:50.919Z,99.90
2018-12-05T16:39:21.376Z,99.90
2018-12-05T16:41:52.455Z,99.90
2018-12-05T16:44:23.207Z,99.90
2018-12-05T16:46:53.964Z,99.90
2018-12-05T16:49:24.348Z,99.90
2018-12-05T16:51:55.136Z,99.90
2018-12-05T16:54:26.500Z,99.90
2018-12-05T16:56:57.365Z,99.90
2018-12-05T16:59:27.647Z,99.90
2018-12-05T17:01:57.847Z,99.90
2018-12-05T17:04:29.011Z,99.90
2018-12-05T17:06:59.784Z,99.90
2018-12-05T17:09:30.621Z,99.90
2018-12-05T17:12:01.020Z,99.90
2018-12-05T17:14:31.753Z,99.90
2018-12-05T17:17:02.277Z,99.90
2018-12-05T17:19:32.516Z,99.90
2018-12-05T17:22:02.795Z,99.90
2018-12-05T17:24:33.038Z,99.90
2018-12-05T17:27:03.327Z,99.90
2018-12-05T17:29:34.095Z,99.90
2018-12-05T17:32:05.225Z,99.90
2018-12-05T17:34:35.574Z,99.90
2018-12-05T17:37:05.782Z,99.90
2018-12-05T17:39:37.905Z,99.90
2018-12-05T17:42:09.416Z,99.90
2018-12-05T17:44:40.009Z,99.90
2018-12-05T17:47:11.019Z,99.90
2018-12-05T17:49:41.836Z,99.90
2018-12-05T17:52:12.508Z,99.90
2018-12-05T17:54:42.836Z,99.90
2018-12-05T17:57:13.835Z,99.90
2018-12-05T17:59:43.996Z,99.90
2018-12-05T18:02:14.565Z,99.90
2018-12-05T18:04:45.410Z,99.90
2018-12-05T18:07:15.710Z,99.90
2018-12-05T18:09:46.919Z,99.90
2018-12-05T18:12:17.577Z,99.90
2018-12-05T18:14:48.428Z,99.90
2018-12-05T18:17:20.350Z,99.90
2018-12-05T18:19:51.929Z,99.90
2018-12-05T18:22:22.826Z,99.90
2018-12-05T18:24:54.929Z,99.90
2018-12-05T18:27:25.560Z,99.90
2018-12-05T18:30:00.851Z,99.90
2018-12-05T18:32:31.794Z,99.90
2018-12-05T18:35:03.294Z,99.90
2018-12-05T18:37:36.119Z,99.90
2018-12-05T18:40:06.930Z,99.90
2018-12-05T18:42:37.592Z,99.90
2018-12-05T18:45:08.891Z,99.90
2018-12-05T18:47:39.856Z,99.90
2018-12-05T18:50:14.327Z,99.90
2018-12-05T18:52:44.954Z,99.90
2018-12-05T18:55:16.048Z,99.90
2018-12-05T18:57:46.557Z,99.90
2018-12-05T19:00:18.150Z,99.90
2018-12-05T19:02:49.526Z,99.90
2018-12-05T19:05:20.432Z,99.90
2018-12-05T19:07:52.100Z,99.90
2018-12-05T19:10:23.125Z,99.90
2018-12-05T19:12:55.040Z,99.90
2018-12-05T19:15:25.468Z,99.90
2018-12-05T19:18:00.276Z,99.90
2018-12-05T19:20:31.385Z,99.90
2018-12-05T19:23:04.828Z,99.90
2018-12-05T19:25:35.699Z,99.90
2018-12-05T19:28:07.439Z,99.90
2018-12-05T19:30:39.380Z,99.90
2018-12-05T19:33:10.150Z,99.90
2018-12-05T19:35:44.668Z,99.90
2018-12-05T19:38:15.601Z,99.90
2018-12-05T19:40:50.198Z,99.90
2018-12-05T19:43:21.010Z,99.90
2018-12-05T19:45:52.200Z,99.90
2018-12-05T19:48:23.869Z,99.90
2018-12-05T19:50:54.223Z,99.90
2018-12-05T19:53:24.381Z,99.90
2018-12-05T19:55:54.963Z,99.90
2018-12-05T19:58:24.913Z,99.90
2018-12-05T20:00:56.131Z,99.90
2018-12-05T20:03:27.671Z,99.90
2018-12-05T20:06:01.270Z,99.90
2018-12-05T20:08:34.760Z,99.90
2018-12-05T20:11:07.450Z,99.90
2018-12-05T20:13:39.408Z,99.90
2018-12-05T20:16:09.507Z,99.90
2018-12-05T20:18:42.484Z,99.90
2018-12-05T20:21:13.062Z,99.90
2018-12-05T20:23:45.075Z,99.90
2018-12-05T20:26:17.978Z,99.90
2018-12-05T20:28:48.797Z,99.90
2018-12-05T20:31:19.998Z,99.90
2018-12-05T20:33:51.089Z,99.90
2018-12-05T20:36:22.346Z,99.90
2018-12-05T20:38:54.216Z,99.90
2018-12-05T20:41:31.299Z,99.90
2018-12-05T20:43:58.407Z,99.90
2018-12-05T20:46:28.841Z,99.90
2018-12-05T20:49:00.707Z,99.90
2018-12-05T20:51:35.136Z,99.90
2018-12-05T20:54:05.912Z,99.90
2018-12-05T20:56:36.600Z,99.90
2018-12-05T20:59:11.351Z,99.90
2018-12-05T21:01:42.710Z,99.90
2018-12-05T21:04:13.035Z,99.90
2018-12-05T21:09:50.393Z,99.90
2018-12-05T21:12:20.201Z,99.90
2018-12-05T21:14:52.132Z,99.90
2018-12-05T21:17:24.629Z,99.90
2018-12-05T21:19:55.862Z,99.90
2018-12-05T21:22:26.729Z,99.90
2018-12-05T21:24:57.207Z,99.90
2018-12-05T21:27:27.242Z,99.90
2018-12-05T21:29:57.250Z,99.90
2018-12-05T21:32:27.292Z,99.90
2018-12-05T21:34:57.306Z,99.90
2018-12-05T21:37:27.245Z,99.90
2018-12-05T21:39:57.038Z,99.90
2018-12-05T21:42:26.921Z,99.90
2018-12-05T21:44:56.744Z,99.90
2018-12-05T21:47:26.806Z,99.90
2018-12-05T21:49:56.714Z,99.90
2018-12-05T21:52:26.665Z,99.90
2018-12-05T21:54:56.630Z,99.90
2018-12-05T21:57:26.611Z,99.90
2018-12-05T21:59:56.582Z,99.90
2018-12-05T22:02:26.571Z,99.90
2018-12-05T22:04:56.504Z,99.90
2018-12-05T22:07:26.556Z,99.90
2018-12-05T22:09:56.352Z,99.90
2018-12-05T22:12:26.193Z,99.90
2018-12-05T22:14:56.173Z,99.90
2018-12-05T22:17:26.016Z,99.90
2018-12-05T22:19:56.041Z,99.90
2018-12-05T22:22:25.788Z,99.90
2018-12-05T22:24:55.613Z,99.90
2018-12-05T22:27:25.481Z,99.90
2018-12-05T22:29:55.380Z,99.90
2018-12-05T22:32:25.333Z,99.90
2018-12-05T22:34:55.268Z,99.90
2018-12-05T22:37:25.276Z,99.90
2018-12-05T22:39:55.048Z,99.90
2018-12-05T22:42:24.953Z,99.90
2018-12-05T22:44:54.808Z,99.90
2018-12-05T22:47:24.714Z,99.90
2018-12-05T22:49:54.651Z,99.90
2018-12-05T22:52:24.590Z,99.90
2018-12-05T22:54:54.402Z,99.90
2018-12-05T22:57:24.161Z,99.90
2018-12-05T22:59:54.161Z,99.90
2018-12-05T23:02:23.923Z,99.90
2018-12-05T23:04:53.738Z,99.90
2018-12-05T23:07:23.649Z,99.90
2018-12-05T23:09:53.638Z,99.90
2018-12-05T23:12:23.458Z,99.90
2018-12-05T23:14:53.463Z,99.90
2018-12-05T23:17:23.395Z,99.90
2018-12-05T23:19:53.162Z,99.90
2018-12-05T23:22:22.839Z,99.90
2018-12-05T23:24:52.506Z,99.90
2018-12-05T23:27:22.255Z,99.90
2018-12-05T23:29:51.945Z,99.90
2018-12-05T23:32:21.798Z,99.90
2018-12-05T23:34:51.490Z,99.90
2018-12-05T23:37:21.340Z,99.90
2018-12-05T23:39:51.293Z,99.90
2018-12-05T23:42:21.033Z,99.90
2018-12-05T23:44:50.883Z,99.90
2018-12-05T23:47:20.719Z,99.90
2018-12-05T23:49:50.520Z,99.90
2018-12-05T23:52:20.251Z,99.90
2018-12-05T23:54:50.143Z,99.90
2018-12-05T23:57:19.936Z,99.90
2018-12-05T23:59:49.747Z,99.90
